Time;durP1;ratioP1;P1;durP2;ratioP2;P2;SDS_P1;SDS_P2;PMS_P1;PMS_P2;Temp;Humidity;BMP_temperature;BMP_pressure;BME280_temperature;BME280_humidity;BME280_pressure;Samples;Min_cycle;Max_cycle;Signal;HPM_P1;HPM_P2
2020/12/20 00:00:49;;;;;;;8.25;4.28;;;8.60;99.90;;;;;;5085737;28;20037;-78
2020/12/20 00:03:15;;;;;;;7.65;3.13;;;8.60;99.90;;;;;;5085025;28;20024;-78
2020/12/20 00:05:41;;;;;;;5.88;3.53;;;8.60;99.90;;;;;;5085233;28;20051;-77
2020/12/20 00:08:07;;;;;;;10.52;4.45;;;8.60;99.90;;;;;;5085370;28;20112;-77
2020/12/20 00:10:32;;;;;;;9.23;3.90;;;8.60;99.90;;;;;;5085352;28;20103;-78
2020/12/20 00:12:58;;;;;;;9.65;3.55;;;8.50;99.90;;;;;;5085470;28;20032;-77
2020/12/20 00:15:25;;;;;;;7.60;3.92;;;8.50;99.90;;;;;;5085278;28;20056;-78
2020/12/20 00:17:51;;;;;;;8.75;4.40;;;8.50;99.90;;;;;;5085866;28;20029;-78
2020/12/20 00:20:17;;;;;;;7.70;3.78;;;8.50;99.90;;;;;;5085444;28;20028;-77
2020/12/20 00:22:43;;;;;;;10.20;4.32;;;8.50;99.90;;;;;;5085431;28;20032;-77
2020/12/20 00:25:09;;;;;;;4.93;2.97;;;8.50;99.90;;;;;;5085386;28;20033;-77
2020/12/20 00:27:34;;;;;;;7.38;3.90;;;8.50;99.90;;;;;;5083821;28;20059;-77
2020/12/20 00:30:00;;;;;;;6.68;3.50;;;8.50;99.90;;;;;;5085081;28;20024;-79
2020/12/20 00:32:26;;;;;;;8.02;4.05;;;8.60;99.90;;;;;;5083995;28;20021;-78
2020/12/20 00:34:51;;;;;;;8.65;3.97;;;8.60;99.90;;;;;;5083770;28;20033;-79
2020/12/20 00:37:17;;;;;;;9.02;4.85;;;8.60;99.90;;;;;;5085296;28;20032;-77
2020/12/20 00:39:42;;;;;;;9.00;3.38;;;8.60;99.90;;;;;;5083882;28;20051;-77
2020/12/20 00:42:08;;;;;;;8.60;3.80;;;8.60;99.90;;;;;;5084544;28;20040;-78
2020/12/20 00:44:34;;;;;;;8.18;4.50;;;8.60;99.90;;;;;;5083598;28;20028;-79
2020/12/20 00:47:02;;;;;;;9.73;3.90;;;8.60;99.90;;;;;;5084824;28;20025;-77
2020/12/20 00:49:30;;;;;;;8.07;3.80;;;8.60;99.90;;;;;;5083592;28;20025;-79
2020/12/20 00:52:01;;;;;;;9.63;4.10;;;8.70;99.90;;;;;;5083718;28;20025;-78
2020/12/20 00:54:27;;;;;;;5.82;3.13;;;8.60;99.90;;;;;;5083326;28;20135;-78
2020/12/20 00:56:53;;;;;;;7.72;3.72;;;8.60;99.90;;;;;;5084823;28;20028;-78
2020/12/20 00:59:18;;;;;;;8.40;3.55;;;8.60;99.90;;;;;;5084935;28;20544;-78
2020/12/20 01:01:44;;;;;;;13.15;4.70;;;8.70;99.90;;;;;;5084810;28;20040;-77
2020/12/20 01:04:10;;;;;;;12.15;4.90;;;8.60;99.90;;;;;;5084680;28;20025;-78
2020/12/20 01:06:36;;;;;;;8.18;3.72;;;8.70;99.90;;;;;;5084416;28;20028;-78
2020/12/20 01:09:03;;;;;;;8.30;3.97;;;8.70;99.90;;;;;;5083496;28;20054;-77
2020/12/20 01:11:28;;;;;;;6.45;3.20;;;8.70;99.90;;;;;;5084599;28;20047;-78
2020/12/20 01:13:55;;;;;;;8.45;3.88;;;8.70;99.90;;;;;;5084293;28;20045;-79
2020/12/20 01:16:23;;;;;;;11.48;4.38;;;8.70;99.90;;;;;;5083626;28;20035;-78
2020/12/20 01:18:49;;;;;;;8.02;3.40;;;8.70;99.90;;;;;;5083221;28;20374;-78
2020/12/20 01:21:15;;;;;;;6.80;3.83;;;8.60;99.90;;;;;;5083294;28;20025;-77
2020/12/20 01:23:40;;;;;;;6.28;3.95;;;8.70;99.90;;;;;;5083241;28;20025;-78
2020/12/20 01:26:06;;;;;;;7.72;3.33;;;8.70;99.90;;;;;;5083104;28;20059;-79
2020/12/20 01:28:32;;;;;;;6.28;3.33;;;8.70;99.90;;;;;;5083310;28;20028;-78
2020/12/20 01:30:58;;;;;;;9.50;3.85;;;8.70;99.90;;;;;;5084234;28;20032;-79
2020/12/20 01:33:24;;;;;;;8.43;4.10;;;8.70;99.90;;;;;;5084722;28;20084;-79
2020/12/20 01:35:51;;;;;;;7.38;4.05;;;8.70;99.90;;;;;;5084497;28;20029;-78
2020/12/20 01:38:17;;;;;;;8.63;4.25;;;8.60;99.90;;;;;;5084613;28;20050;-78
2020/12/20 01:40:49;;;;;;;7.60;3.90;;;8.60;99.90;;;;;;5084264;28;20029;-79
2020/12/20 01:43:15;;;;;;;10.30;4.53;;;8.60;99.90;;;;;;5082987;28;20039;-79
2020/12/20 01:45:41;;;;;;;10.07;3.92;;;8.60;99.90;;;;;;5084290;28;20032;-78
2020/12/20 01:48:08;;;;;;;11.10;4.80;;;8.60;99.90;;;;;;5082953;28;20025;-78
2020/12/20 01:50:34;;;;;;;8.88;4.03;;;8.50;99.90;;;;;;5084270;28;20055;-78
2020/12/20 01:53:01;;;;;;;5.35;3.42;;;8.50;99.90;;;;;;5082982;28;20024;-78
2020/12/20 01:55:28;;;;;;;13.85;4.10;;;8.50;99.90;;;;;;5082831;28;20108;-78
2020/12/20 01:57:55;;;;;;;10.05;4.38;;;8.50;99.90;;;;;;5084199;28;20025;-79
2020/12/20 02:00:21;;;;;;;5.20;3.38;;;8.50;99.90;;;;;;5083272;28;20056;-78
2020/12/20 02:02:46;;;;;;;9.02;4.30;;;8.50;99.90;;;;;;5083005;28;20064;-78
2020/12/20 02:05:12;;;;;;;10.38;3.88;;;8.50;99.90;;;;;;5084148;28;20036;-79
2020/12/20 02:07:38;;;;;;;5.90;4.20;;;8.40;99.90;;;;;;5083035;28;20043;-78
2020/12/20 02:10:04;;;;;;;6.85;4.00;;;8.40;99.90;;;;;;5082853;28;20032;-79
2020/12/20 02:12:29;;;;;;;6.45;3.78;;;8.40;99.90;;;;;;5082848;28;20063;-79
2020/12/20 02:14:55;;;;;;;7.53;4.18;;;8.40;99.90;;;;;;5082431;28;20123;-78
2020/12/20 02:17:21;;;;;;;5.47;3.25;;;8.50;99.90;;;;;;5084314;28;20027;-78
2020/12/20 02:19:46;;;;;;;8.32;4.10;;;8.50;99.90;;;;;;5082788;28;20096;-78
2020/12/20 02:22:13;;;;;;;5.80;3.72;;;8.50;99.90;;;;;;5085293;28;20698;-78
2020/12/20 02:24:38;;;;;;;11.38;4.60;;;8.50;99.90;;;;;;5087455;28;20539;-78
2020/12/20 02:27:04;;;;;;;9.40;4.00;;;8.60;99.90;;;;;;5088320;28;20024;-78
2020/12/20 02:29:30;;;;;;;5.18;3.05;;;8.50;99.90;;;;;;5090372;28;20028;-78
2020/12/20 02:31:58;;;;;;;5.35;3.75;;;8.50;99.90;;;;;;5087788;28;20052;-78
2020/12/20 02:34:23;;;;;;;9.68;4.28;;;8.50;99.90;;;;;;5086273;28;20063;-79
2020/12/20 02:36:49;;;;;;;7.03;3.22;;;8.50;99.90;;;;;;5087608;28;20041;-77
2020/12/20 02:39:15;;;;;;;6.18;4.03;;;8.50;99.90;;;;;;5086292;28;20021;-78
2020/12/20 02:41:41;;;;;;;8.63;3.97;;;8.40;99.90;;;;;;5085961;28;20052;-78
2020/12/20 02:44:06;;;;;;;8.77;3.88;;;8.40;99.90;;;;;;5085783;28;20047;-78
2020/12/20 02:46:32;;;;;;;7.00;4.05;;;8.40;99.90;;;;;;5087177;28;20021;-77
2020/12/20 02:48:57;;;;;;;6.40;3.45;;;8.30;99.90;;;;;;5087110;28;20024;-78
2020/12/20 02:51:23;;;;;;;6.85;3.92;;;8.20;99.90;;;;;;5087233;28;20021;-79
2020/12/20 02:53:49;;;;;;;7.65;3.85;;;8.20;99.90;;;;;;5086176;28;20039;-78
2020/12/20 02:56:15;;;;;;;7.22;3.45;;;8.20;99.90;;;;;;5087229;28;20033;-78
2020/12/20 02:58:41;;;;;;;7.68;4.47;;;8.20;99.90;;;;;;5085654;28;20508;-78
2020/12/20 03:01:07;;;;;;;6.32;4.03;;;8.10;99.90;;;;;;5086696;28;20029;-78
2020/12/20 03:03:32;;;;;;;19.13;4.53;;;8.10;99.90;;;;;;5086853;28;20028;-78
2020/12/20 03:05:58;;;;;;;9.38;5.15;;;8.10;99.90;;;;;;5085458;28;20047;-78
2020/12/20 03:08:24;;;;;;;8.95;4.15;;;8.00;99.90;;;;;;5085706;28;20059;-79
2020/12/20 03:10:50;;;;;;;6.45;3.58;;;8.00;99.90;;;;;;5085722;28;20031;-77
2020/12/20 03:13:16;;;;;;;7.55;3.47;;;8.00;99.90;;;;;;5086850;28;20374;-78
2020/12/20 03:15:43;;;;;;;9.27;4.13;;;7.90;99.90;;;;;;5085241;28;20108;-78
2020/12/20 03:18:09;;;;;;;6.72;3.50;;;7.90;99.90;;;;;;5085185;28;20032;-78
2020/12/20 03:20:35;;;;;;;6.93;3.88;;;7.90;99.90;;;;;;5086437;28;20020;-78
2020/12/20 03:23:00;;;;;;;6.63;3.75;;;7.80;99.90;;;;;;5086598;28;20029;-79
2020/12/20 03:25:26;;;;;;;5.50;3.60;;;7.80;99.90;;;;;;5085329;28;20039;-77
2020/12/20 03:27:52;;;;;;;9.80;3.95;;;7.80;99.90;;;;;;5086482;28;20024;-78
2020/12/20 03:30:18;;;;;;;4.43;3.05;;;7.80;99.90;;;;;;5085250;28;20052;-78
2020/12/20 03:32:44;;;;;;;6.90;4.05;;;7.70;99.90;;;;;;5086341;28;20052;-77
2020/12/20 03:35:09;;;;;;;6.15;3.85;;;7.70;99.90;;;;;;5086110;28;20076;-78
2020/12/20 03:37:35;;;;;;;7.65;4.18;;;7.70;99.90;;;;;;5086241;28;20469;-78
2020/12/20 03:40:01;;;;;;;8.57;4.15;;;7.70;99.90;;;;;;5084789;28;20044;-78
2020/12/20 03:42:27;;;;;;;8.38;3.78;;;7.70;99.90;;;;;;5084692;28;20043;-78
2020/12/20 03:44:52;;;;;;;9.52;3.88;;;7.70;99.90;;;;;;5085037;28;20384;-78
2020/12/20 03:47:18;;;;;;;4.85;3.03;;;7.70;99.90;;;;;;5086081;28;20469;-78
2020/12/20 03:49:43;;;;;;;10.50;4.63;;;7.70;99.90;;;;;;5084752;28;20025;-78
2020/12/20 03:52:09;;;;;;;7.07;3.42;;;7.60;99.90;;;;;;5084658;28;20071;-78
2020/12/20 03:54:34;;;;;;;6.32;3.50;;;7.70;99.90;;;;;;5084478;28;20445;-78
2020/12/20 03:57:00;;;;;;;5.20;3.10;;;7.70;99.90;;;;;;5085728;28;20029;-78
2020/12/20 03:59:25;;;;;;;7.15;3.72;;;7.70;99.90;;;;;;5084478;28;20416;-78
2020/12/20 04:01:51;;;;;;;7.88;4.03;;;7.60;99.90;;;;;;5084597;28;20032;-79
2020/12/20 04:04:17;;;;;;;7.10;3.33;;;7.60;99.90;;;;;;5084600;28;20035;-77
2020/12/20 04:06:43;;;;;;;7.38;3.45;;;7.60;99.90;;;;;;5084368;28;20114;-78
2020/12/20 04:09:08;;;;;;;11.50;3.38;;;7.60;99.90;;;;;;5084398;28;20028;-77
2020/12/20 04:11:34;;;;;;;7.13;3.28;;;7.60;99.90;;;;;;5085371;28;20052;-78
2020/12/20 04:13:59;;;;;;;12.55;3.40;;;7.70;99.90;;;;;;5085118;28;20101;-78
2020/12/20 04:16:25;;;;;;;6.50;3.55;;;7.60;99.90;;;;;;5084547;28;20111;-79
2020/12/20 04:18:50;;;;;;;5.75;3.53;;;7.70;99.90;;;;;;5084087;28;20028;-77
2020/12/20 04:21:16;;;;;;;5.65;3.40;;;7.70;99.90;;;;;;5085408;28;20028;-77
2020/12/20 04:23:41;;;;;;;7.57;4.10;;;7.60;99.90;;;;;;5083919;28;20028;-78
2020/12/20 04:26:07;;;;;;;8.65;3.80;;;7.60;99.90;;;;;;5084038;28;20051;-78
2020/12/20 04:28:33;;;;;;;4.40;3.15;;;7.60;99.90;;;;;;5085242;28;20073;-79
2020/12/20 04:30:59;;;;;;;6.55;3.67;;;7.60;99.90;;;;;;5085031;28;20031;-78
2020/12/20 04:33:24;;;;;;;6.88;3.58;;;7.60;99.90;;;;;;5085227;28;20084;-78
2020/12/20 04:35:50;;;;;;;5.03;3.00;;;7.70;99.90;;;;;;5085299;28;20088;-78
2020/12/20 04:38:15;;;;;;;7.00;3.55;;;7.70;99.90;;;;;;5084948;28;20039;-78
2020/12/20 04:40:41;;;;;;;3.63;2.35;;;7.70;99.90;;;;;;5083583;28;20054;-78
2020/12/20 04:43:09;;;;;;;10.73;4.10;;;7.60;99.90;;;;;;5084968;28;20033;-79
2020/12/20 04:45:35;;;;;;;7.72;4.20;;;7.60;99.90;;;;;;5083387;28;20055;-77
2020/12/20 04:48:03;;;;;;;24.60;4.85;;;7.60;99.90;;;;;;5083520;28;20024;-78
2020/12/20 04:50:29;;;;;;;12.27;4.75;;;7.60;99.90;;;;;;5084805;28;20028;-78
2020/12/20 04:52:57;;;;;;;5.45;3.33;;;7.60;99.90;;;;;;5083454;28;20050;-79
2020/12/20 04:55:23;;;;;;;5.82;3.50;;;7.60;99.90;;;;;;5084978;28;20036;-78
2020/12/20 04:57:50;;;;;;;7.78;3.58;;;7.60;99.90;;;;;;5085098;28;20037;-78
2020/12/20 05:00:17;;;;;;;5.80;3.35;;;7.60;99.90;;;;;;5084657;28;20031;-78
2020/12/20 05:02:42;;;;;;;5.57;3.22;;;7.60;99.90;;;;;;5083459;28;20106;-78
2020/12/20 05:05:08;;;;;;;6.05;3.30;;;7.60;99.90;;;;;;5083684;28;20095;-78
2020/12/20 05:07:34;;;;;;;6.35;3.50;;;7.60;99.90;;;;;;5083438;28;20025;-79
2020/12/20 05:10:01;;;;;;;12.55;3.58;;;7.60;99.90;;;;;;5083430;28;20021;-78
2020/12/20 05:12:28;;;;;;;5.63;3.53;;;7.60;99.90;;;;;;5083358;28;20044;-78
2020/12/20 05:14:55;;;;;;;7.25;3.47;;;7.60;99.90;;;;;;5083140;28;20057;-78
2020/12/20 05:17:21;;;;;;;6.30;3.38;;;7.60;99.90;;;;;;5083547;28;20053;-79
2020/12/20 05:19:46;;;;;;;9.57;3.65;;;7.60;99.90;;;;;;5084529;28;20033;-79
2020/12/20 05:22:15;;;;;;;5.05;2.85;;;7.60;99.90;;;;;;5084423;28;20906;-79
2020/12/20 05:24:42;;;;;;;7.30;3.25;;;7.60;99.90;;;;;;5083218;28;20056;-78
2020/12/20 05:27:30;;;;;;;5.03;2.75;;;7.60;99.90;;;;;;5083210;28;20039;-78
2020/12/20 05:30:09;;;;;;;6.85;3.75;;;7.60;99.90;;;;;;5084555;28;20029;-79
2020/12/20 05:32:39;;;;;;;4.90;2.88;;;7.60;99.90;;;;;;5083339;28;20024;-78
2020/12/20 05:35:07;;;;;;;5.43;2.90;;;7.60;99.90;;;;;;5083004;28;20070;-79
2020/12/20 05:37:34;;;;;;;6.45;3.80;;;7.60;99.90;;;;;;5083341;28;20027;-79
2020/12/20 05:40:03;;;;;;;5.03;2.85;;;7.60;99.90;;;;;;5084489;28;20028;-79
2020/12/20 05:42:29;;;;;;;6.75;3.67;;;7.60;99.90;;;;;;5084607;28;20033;-80
2020/12/20 05:45:03;;;;;;;11.93;4.00;;;7.60;99.90;;;;;;5083145;28;20024;-79
2020/12/20 05:47:29;;;;;;;6.15;2.67;;;7.60;99.90;;;;;;5084269;28;20039;-79
2020/12/20 05:49:55;;;;;;;5.72;3.50;;;7.50;99.90;;;;;;5084220;28;20029;-79
2020/12/20 05:52:20;;;;;;;6.35;3.03;;;7.50;99.90;;;;;;5084696;28;20029;-78
2020/12/20 05:54:46;;;;;;;5.05;2.63;;;7.50;99.90;;;;;;5083067;28;20090;-78
2020/12/20 05:57:15;;;;;;;7.40;3.15;;;7.50;99.90;;;;;;5085543;28;20047;-79
2020/12/20 05:59:43;;;;;;;8.43;3.33;;;7.50;99.90;;;;;;5088056;28;20439;-78
2020/12/20 06:02:10;;;;;;;9.70;3.17;;;7.50;99.90;;;;;;5086690;28;20020;-79
2020/12/20 06:04:36;;;;;;;5.93;3.25;;;7.50;99.90;;;;;;5088003;28;20024;-78
2020/12/20 06:07:03;;;;;;;6.65;3.80;;;7.50;99.90;;;;;;5087863;28;20020;-78
2020/12/20 06:09:30;;;;;;;8.23;4.20;;;7.40;99.90;;;;;;5086682;28;20032;-79
2020/12/20 06:11:58;;;;;;;5.55;3.00;;;7.50;99.90;;;;;;5088066;28;20025;-79
2020/12/20 06:14:28;;;;;;;6.93;3.70;;;7.40;99.90;;;;;;5087881;28;20131;-78
2020/12/20 06:17:15;;;;;;;5.50;3.80;;;7.40;99.90;;;;;;5087816;28;20033;-79
2020/12/20 06:20:05;;;;;;;6.25;3.03;;;7.50;99.90;;;;;;5086356;28;20055;-79
2020/12/20 06:22:31;;;;;;;5.68;3.22;;;7.50;99.90;;;;;;5086320;28;20100;-78
2020/12/20 06:25:05;;;;;;;7.30;3.80;;;7.40;99.90;;;;;;5088182;28;20093;-78
2020/12/20 06:27:32;;;;;;;7.43;3.08;;;7.40;99.90;;;;;;5087807;28;20056;-79
2020/12/20 06:30:03;;;;;;;7.53;3.50;;;7.50;99.90;;;;;;5087556;28;20033;-79
2020/12/20 06:32:49;;;;;;;4.65;2.97;;;7.40;99.90;;;;;;5087686;28;20031;-79
2020/12/20 06:35:28;;;;;;;6.13;3.47;;;7.40;99.90;;;;;;5086270;28;20040;-78
2020/12/20 06:37:54;;;;;;;7.13;3.50;;;7.40;99.90;;;;;;5087687;28;20050;-79
2020/12/20 06:40:40;;;;;;;7.75;3.03;;;7.40;99.90;;;;;;5087663;28;20054;-78
2020/12/20 06:43:07;;;;;;;8.10;3.42;;;7.40;99.90;;;;;;5087227;28;20042;-79
2020/12/20 06:45:45;;;;;;;6.15;3.35;;;7.40;99.90;;;;;;5087231;28;20024;-79
2020/12/20 06:48:13;;;;;;;4.63;3.28;;;7.40;99.90;;;;;;5087346;28;20032;-79
2020/12/20 06:50:38;;;;;;;5.70;2.95;;;7.40;99.90;;;;;;5087089;28;20053;-78
2020/12/20 06:53:13;;;;;;;7.30;4.25;;;7.40;99.90;;;;;;5085704;28;20055;-79
2020/12/20 06:55:38;;;;;;;;;;;7.40;99.90;;;;;;5086156;28;20036;-78
2020/12/20 06:58:09;;;;;;;6.47;3.25;;;7.30;99.90;;;;;;5086824;28;19912;-78
2020/12/20 07:00:55;;;;;;;5.57;2.72;;;7.30;99.90;;;;;;5086672;28;20029;-79
2020/12/20 07:03:20;;;;;;;8.30;3.88;;;7.30;99.90;;;;;;5087242;28;20051;-79
2020/12/20 07:05:48;;;;;;;12.48;4.32;;;7.30;99.90;;;;;;5085763;28;20028;-79
2020/12/20 07:08:23;;;;;;;14.95;3.47;;;7.30;99.90;;;;;;5086510;28;20028;-78
2020/12/20 07:10:48;;;;;;;7.15;3.72;;;7.30;99.90;;;;;;5085393;28;20024;-78
2020/12/20 07:13:15;;;;;;;5.45;3.15;;;7.30;99.90;;;;;;5085048;28;20096;-79
2020/12/20 07:15:46;;;;;;;7.72;3.63;;;7.30;99.90;;;;;;5085091;28;20048;-78
2020/12/20 07:19:00;;;;;;;5.45;3.40;;;7.20;99.90;;;;;;5086467;28;20020;-78
2020/12/20 07:21:29;;;;;;;6.13;3.58;;;7.30;99.90;;;;;;5063866;28;20044;-78
2020/12/20 07:24:19;;;;;;;14.43;3.88;;;7.20;99.90;;;;;;5085256;28;20052;-79
2020/12/20 07:26:46;;;;;;;6.93;3.95;;;7.20;99.90;;;;;;5085093;28;20017;-78
2020/12/20 07:29:12;;;;;;;5.30;2.92;;;7.20;99.90;;;;;;5086521;28;20036;-78
2020/12/20 07:31:37;;;;;;;8.73;4.30;;;7.30;99.90;;;;;;5085060;28;20556;-77
2020/12/20 07:34:05;;;;;;;6.55;3.17;;;7.20;99.90;;;;;;5084433;28;20425;-78
2020/12/20 07:36:31;;;;;;;5.68;3.15;;;7.20;99.90;;;;;;5084990;28;20032;-79
2020/12/20 07:38:57;;;;;;;9.48;3.88;;;7.20;99.90;;;;;;5085106;28;20092;-78
2020/12/20 07:41:26;;;;;;;5.50;3.05;;;7.20;99.90;;;;;;5086225;28;20029;-78
2020/12/20 07:43:53;;;;;;;8.55;3.67;;;7.20;99.90;;;;;;5085275;28;20088;-78
2020/12/20 07:46:20;;;;;;;16.02;3.42;;;7.20;99.90;;;;;;5084741;28;20047;-78
2020/12/20 07:48:46;;;;;;;7.82;3.90;;;7.10;99.90;;;;;;5085858;28;20024;-78
2020/12/20 07:51:14;;;;;;;7.25;3.78;;;7.20;99.90;;;;;;5085662;28;20078;-78
2020/12/20 07:53:47;;;;;;;7.57;3.78;;;7.20;99.90;;;;;;5084539;28;20028;-78
2020/12/20 07:56:26;;;;;;;5.10;2.95;;;7.20;99.90;;;;;;5085747;28;20115;-79
2020/12/20 07:58:55;;;;;;;5.68;3.50;;;7.20;99.90;;;;;;5085967;28;20028;-83
2020/12/20 08:01:21;;;;;;;7.00;3.70;;;7.20;99.90;;;;;;5084357;28;20028;-79
2020/12/20 08:03:47;;;;;;;8.57;4.30;;;7.30;99.90;;;;;;5085508;28;20070;-79
2020/12/20 08:06:15;;;;;;;5.10;3.15;;;7.20;99.90;;;;;;5084154;28;20021;-78
2020/12/20 08:08:41;;;;;;;7.43;3.75;;;7.20;99.90;;;;;;5084269;28;20092;-80
2020/12/20 08:11:27;;;;;;;6.60;3.05;;;7.20;99.90;;;;;;5084135;28;20028;-78
2020/12/20 08:13:57;;;;;;;6.65;3.50;;;7.20;99.90;;;;;;5085426;28;20053;-79
2020/12/20 08:16:25;;;;;;;6.40;3.90;;;7.20;99.90;;;;;;5085210;28;20068;-80
2020/12/20 08:18:57;;;;;;;5.38;2.88;;;7.30;99.90;;;;;;5085356;28;20082;-79
2020/12/20 08:21:36;;;;;;;9.20;4.10;;;7.30;99.90;;;;;;5084605;28;20092;-80
2020/12/20 08:24:02;;;;;;;6.05;3.58;;;7.30;99.90;;;;;;5084070;28;20112;-79
2020/12/20 08:26:32;;;;;;;7.55;4.10;;;7.30;99.90;;;;;;5083631;28;20025;-79
2020/12/20 08:28:59;;;;;;;7.38;3.55;;;7.30;99.90;;;;;;5085205;28;20033;-80
2020/12/20 08:31:32;;;;;;;8.20;3.95;;;7.40;99.90;;;;;;5083940;28;20024;-79
2020/12/20 08:33:58;;;;;;;6.67;3.47;;;7.40;99.90;;;;;;5083725;28;20032;-78
2020/12/20 08:36:25;;;;;;;5.85;3.75;;;7.40;99.90;;;;;;5083546;28;20071;-79
2020/12/20 08:38:53;;;;;;;5.57;3.70;;;7.40;99.90;;;;;;5083532;28;20047;-79
2020/12/20 08:41:20;;;;;;;6.72;3.08;;;7.50;99.90;;;;;;5083289;28;20056;-78
2020/12/20 08:43:46;;;;;;;9.02;3.47;;;7.40;99.90;;;;;;5083311;28;20059;-77
2020/12/20 08:46:27;;;;;;;5.60;3.60;;;7.50;99.90;;;;;;5084931;28;20025;-78
2020/12/20 08:48:52;;;;;;;4.63;2.92;;;7.50;99.90;;;;;;5083359;28;20041;-78
2020/12/20 08:51:24;;;;;;;6.90;3.75;;;7.50;99.90;;;;;;5083285;28;20055;-78
2020/12/20 08:53:50;;;;;;;7.45;4.28;;;7.60;99.90;;;;;;5083348;28;20033;-79
2020/12/20 08:56:15;;;;;;;7.25;3.88;;;7.60;99.90;;;;;;5083189;28;20064;-78
2020/12/20 08:58:47;;;;;;;6.45;3.13;;;7.70;99.90;;;;;;5084992;28;20029;-78
2020/12/20 09:01:13;;;;;;;8.02;3.42;;;7.60;99.90;;;;;;5084133;28;20060;-78
2020/12/20 09:03:38;;;;;;;5.45;3.17;;;7.60;99.90;;;;;;5084185;28;20508;-79
2020/12/20 09:06:14;;;;;;;5.53;3.50;;;7.60;99.90;;;;;;5085034;28;20024;-83
2020/12/20 09:08:39;;;;;;;5.50;3.38;;;7.50;99.90;;;;;;5091457;28;20021;-82
2020/12/20 09:11:05;;;;;;;9.23;3.92;;;7.50;99.90;;;;;;5088667;28;20025;-78
2020/12/20 09:13:31;;;;;;;6.30;3.55;;;7.50;99.90;;;;;;5087139;28;20545;-79
2020/12/20 09:15:57;;;;;;;7.85;3.40;;;7.50;99.90;;;;;;5085687;28;20048;-80
2020/12/20 09:18:25;;;;;;;7.90;3.75;;;7.50;99.90;;;;;;5085929;28;20029;-80
2020/12/20 09:20:52;;;;;;;5.38;3.72;;;7.50;99.90;;;;;;5086164;28;20032;-79
2020/12/20 09:23:23;;;;;;;7.60;3.53;;;7.50;99.90;;;;;;5086632;28;20200;-80
2020/12/20 09:25:50;;;;;;;5.28;3.60;;;7.50;99.90;;;;;;5084800;28;20024;-79
2020/12/20 09:28:25;;;;;;;9.90;3.80;;;7.60;99.90;;;;;;5084692;28;20041;-79
2020/12/20 09:30:54;;;;;;;8.55;3.58;;;7.60;99.90;;;;;;5093856;28;20043;-80
2020/12/20 09:33:36;;;;;;;5.43;3.20;;;7.60;99.90;;;;;;5108646;28;20066;-79
2020/12/20 09:36:06;;;;;;;8.50;3.67;;;7.70;99.90;;;;;;5109971;28;20039;-80
2020/12/20 09:38:45;;;;;;;6.55;3.47;;;7.70;99.90;;;;;;5109601;28;20084;-80
2020/12/20 09:41:13;;;;;;;6.35;3.88;;;7.80;99.90;;;;;;5109319;28;20055;-80
2020/12/20 09:43:40;;;;;;;5.30;3.72;;;7.80;99.90;;;;;;5107678;28;20048;-81
2020/12/20 09:46:06;;;;;;;7.10;3.97;;;7.90;99.90;;;;;;5109316;28;20035;-81
2020/12/20 09:48:32;;;;;;;11.63;3.78;;;7.90;99.90;;;;;;5107734;28;20044;-81
2020/12/20 09:50:58;;;;;;;7.88;4.35;;;8.00;99.90;;;;;;5108933;28;20032;-79
2020/12/20 09:53:23;;;;;;;7.78;3.67;;;8.00;99.90;;;;;;5109199;28;20024;-80
2020/12/20 09:55:49;;;;;;;7.32;4.03;;;8.10;99.90;;;;;;5108812;28;20040;-79
2020/12/20 09:58:15;;;;;;;9.63;5.00;;;8.10;99.90;;;;;;5107181;28;20038;-79
2020/12/20 10:00:42;;;;;;;7.38;3.42;;;8.30;99.90;;;;;;5107205;28;20055;-80
2020/12/20 10:03:08;;;;;;;7.00;3.30;;;8.30;99.90;;;;;;5107282;28;20050;-80
2020/12/20 10:05:35;;;;;;;5.55;3.53;;;8.40;99.90;;;;;;5108526;28;20028;-79
2020/12/20 10:08:01;;;;;;;6.70;3.53;;;8.70;99.90;;;;;;5107179;28;20024;-77
2020/12/20 10:10:28;;;;;;;6.20;3.60;;;9.20;99.90;;;;;;5108382;28;20032;-79
2020/12/20 10:12:53;;;;;;;9.07;3.92;;;9.60;99.90;;;;;;5106997;28;20095;-82
2020/12/20 10:15:19;;;;;;;5.65;3.38;;;9.90;99.90;;;;;;5107908;28;20055;-81
2020/12/20 10:17:45;;;;;;;9.07;4.10;;;10.10;99.90;;;;;;5106479;28;20393;-79
2020/12/20 10:20:11;;;;;;;8.80;4.22;;;10.10;99.90;;;;;;5108073;28;20017;-80
2020/12/20 10:22:37;;;;;;;8.70;4.18;;;10.10;99.90;;;;;;5106373;28;20020;-80
2020/12/20 10:25:04;;;;;;;7.63;4.00;;;9.90;99.90;;;;;;5106445;28;20036;-80
2020/12/20 10:27:30;;;;;;;11.55;3.97;;;9.80;99.90;;;;;;5106461;28;20169;-80
2020/12/20 10:29:56;;;;;;;6.85;3.80;;;9.70;99.90;;;;;;5106351;28;20342;-79
2020/12/20 10:32:22;;;;;;;15.43;4.47;;;9.50;99.90;;;;;;5106479;28;20095;-81
2020/12/20 10:34:47;;;;;;;9.38;4.05;;;9.50;99.90;;;;;;5106214;28;20032;-79
2020/12/20 10:37:13;;;;;;;6.95;3.75;;;9.40;99.90;;;;;;5107604;28;20024;-80
2020/12/20 10:39:39;;;;;;;9.05;4.68;;;9.30;99.90;;;;;;5100412;28;20024;-79
2020/12/20 10:42:04;;;;;;;11.73;5.05;;;9.20;99.90;;;;;;5100318;28;20036;-79
2020/12/20 10:44:30;;;;;;;12.93;4.72;;;9.20;99.90;;;;;;5099348;28;20082;-79
2020/12/20 10:46:56;;;;;;;8.80;4.68;;;9.10;99.90;;;;;;5086900;28;20027;-80
2020/12/20 10:49:22;;;;;;;6.68;4.10;;;9.00;99.90;;;;;;5085730;28;20028;-80
2020/12/20 10:51:55;;;;;;;10.30;4.22;;;9.00;99.90;;;;;;5087011;28;20039;-82
2020/12/20 10:54:34;;;;;;;7.93;4.90;;;9.00;99.90;;;;;;5086189;28;20036;-83
2020/12/20 10:57:01;;;;;;;11.40;4.97;;;9.00;99.90;;;;;;5079521;28;20281;-81
2020/12/20 10:59:31;;;;;;;12.05;4.35;;;9.00;99.90;;;;;;5085308;28;20028;-81
2020/12/20 11:01:58;;;;;;;9.60;4.47;;;9.00;99.90;;;;;;5085542;28;20028;-82
2020/12/20 11:04:24;;;;;;;8.48;4.03;;;9.00;99.90;;;;;;5086831;28;20013;-79
2020/12/20 11:06:56;;;;;;;9.85;4.65;;;9.00;99.90;;;;;;5085306;28;20020;-81
2020/12/20 11:09:24;;;;;;;6.97;4.15;;;9.00;99.90;;;;;;5086661;28;20024;-81
2020/12/20 11:11:50;;;;;;;8.52;4.60;;;9.00;99.90;;;;;;5086622;28;20139;-81
2020/12/20 11:14:15;;;;;;;7.25;3.90;;;9.00;99.90;;;;;;5086034;28;20052;-80
2020/12/20 11:16:41;;;;;;;5.45;3.65;;;9.00;99.90;;;;;;5066672;28;20036;-81
2020/12/20 11:19:07;;;;;;;7.28;3.85;;;9.00;99.90;;;;;;5065958;28;20021;-81
2020/12/20 11:21:33;;;;;;;8.90;3.90;;;9.00;99.90;;;;;;5080331;28;20088;-80
2020/12/20 11:23:59;;;;;;;10.07;4.70;;;9.10;99.90;;;;;;5084973;28;20039;-81
2020/12/20 11:26:25;;;;;;;8.13;4.18;;;9.10;99.90;;;;;;5082005;28;20028;-80
2020/12/20 11:28:52;;;;;;;8.18;4.00;;;9.20;99.90;;;;;;5084343;28;20041;-79
2020/12/20 11:31:25;;;;;;;8.60;4.05;;;9.30;99.90;;;;;;5084644;28;20121;-81
2020/12/20 11:33:51;;;;;;;8.27;4.38;;;9.30;99.90;;;;;;5084814;28;20515;-80
2020/12/20 11:36:20;;;;;;;11.05;4.55;;;9.40;99.90;;;;;;5085949;28;20036;-81
2020/12/20 11:38:47;;;;;;;9.50;4.45;;;9.40;99.90;;;;;;5083354;28;20028;-81
2020/12/20 11:41:13;;;;;;;8.40;4.28;;;9.40;99.90;;;;;;5084320;28;20060;-81
2020/12/20 11:43:38;;;;;;;9.40;4.90;;;9.50;99.90;;;;;;5084699;28;20032;-80
2020/12/20 11:46:04;;;;;;;7.60;4.18;;;9.60;99.90;;;;;;5084568;28;20020;-81
2020/12/20 11:48:31;;;;;;;11.10;4.15;;;9.80;99.90;;;;;;5085752;28;20024;-79
2020/12/20 11:50:57;;;;;;;9.75;4.75;;;10.20;99.90;;;;;;5084079;28;20393;-80
2020/12/20 11:53:25;;;;;;;7.05;4.38;;;10.60;99.90;;;;;;5084301;28;20024;-82
2020/12/20 11:55:51;;;;;;;9.43;4.40;;;;;;;;;;5083352;28;20123;-81
2020/12/20 11:58:21;;;;;;;7.50;4.05;;;;;;;;;;5083575;28;20040;-83
2020/12/20 12:00:48;;;;;;;6.80;3.95;;;;;;;;;;5083911;28;20038;-82
2020/12/20 12:03:15;;;;;;;7.20;4.20;;;;;;;;;;5085803;28;20068;-80
2020/12/20 12:05:45;;;;;;;11.10;4.80;;;;;;;;;;5083956;28;20032;-79
2020/12/20 12:08:18;;;;;;;7.75;4.53;;;;;;;;;;5084949;28;20081;-82
2020/12/20 12:10:46;;;;;;;5.65;3.47;;;;;;;;;;5084093;28;20466;-80
2020/12/20 12:13:13;;;;;;;8.48;3.88;;;;;;;;;;5083960;28;20028;-80
2020/12/20 12:15:39;;;;;;;9.85;4.18;;;;;;;;;;5084936;28;20052;-79
2020/12/20 12:18:05;;;;;;;7.28;3.92;;;;;;;;;;5084911;28;20048;-80
2020/12/20 12:20:37;;;;;;;6.78;4.07;;;;;;;;;;5083150;28;20116;-77
2020/12/20 12:23:04;;;;;;;7.72;4.45;;;10.90;99.90;;;;;;5083440;28;20029;-80
2020/12/20 12:25:31;;;;;;;7.53;4.00;;;11.50;99.90;;;;;;5083812;28;20088;-80
2020/12/20 12:28:07;;;;;;;8.43;4.53;;;11.50;99.90;;;;;;5083088;28;20544;-79
2020/12/20 12:30:36;;;;;;;7.97;3.88;;;11.50;99.90;;;;;;5084752;28;20016;-82
2020/12/20 12:33:02;;;;;;;8.50;4.25;;;11.50;99.90;;;;;;5083221;28;20087;-81
2020/12/20 12:35:28;;;;;;;6.13;3.75;;;11.30;99.90;;;;;;5084805;28;20037;-79
2020/12/20 12:37:54;;;;;;;10.90;5.07;;;11.20;99.90;;;;;;5084658;28;20386;-82
2020/12/20 12:40:20;;;;;;;6.82;3.78;;;11.00;99.90;;;;;;5093632;28;20024;-80
2020/12/20 12:42:46;;;;;;;8.85;4.35;;;10.90;99.90;;;;;;5102884;28;20103;-80
2020/12/20 12:45:17;;;;;;;13.50;4.78;;;10.80;99.90;;;;;;5103182;28;20028;-81
2020/12/20 12:47:43;;;;;;;12.55;4.40;;;10.80;99.90;;;;;;5103024;28;20397;-82
2020/12/20 12:50:09;;;;;;;9.50;4.63;;;10.80;99.90;;;;;;5103227;28;20055;-82
2020/12/20 12:52:35;;;;;;;7.85;4.05;;;10.70;99.90;;;;;;5103437;28;20028;-84
2020/12/20 12:55:04;;;;;;;10.38;4.57;;;10.70;99.90;;;;;;5103798;28;20036;-81
2020/12/20 12:57:30;;;;;;;11.23;5.03;;;10.60;99.90;;;;;;5103964;28;20031;-80
2020/12/20 13:00:01;;;;;;;13.20;5.18;;;10.50;99.90;;;;;;5087849;28;20021;-79